AirNav   ATP
 
 1468 users online  

74FD Clarksville Airport
Clarksville, Florida, USA


FAA INFORMATION EFFECTIVE 20 JULY 2017

Location

FAA Identifier: 74FD
Lat/Long: 30-27-50.7010N / 085-10-37.7130W
30-27.845017N / 085-10.628550W
30.4640836 / -85.1771425
(estimated)
Elevation: 90 ft. / 27 m (estimated)
Variation: 01W (1990)
From city: 2 miles N of CLARKSVILLE, FL
Time zone: UTC -5 (UTC -6 during Standard Time)
Zip code: 32430

Airport Operations

Airport use: Private use. Permission required prior to landing
Activation date: 03/1993
Control tower: no
ARTCC: JACKSONVILLE CENTER
FSS: GAINESVILLE FLIGHT SERVICE STATION
Attendance: UNATNDD
Segmented circle: no

Airport Communications

WX AWOS-AV at F95 (4 nm NE): 119.350 (850-674-1347)

Nearby radio navigation aids

VOR radial/distance  VOR name  Freq  Var
MAIr188/19.5MARIANNA VORTAC114.0000E
HLLr055/33.2HANDLE VORTAC114.3004W

 
NDB name  Hdg/Dist  Freq  Var  ID
SOYYA176/24.632902WSMY ... -- -.--
TRI COUNTY140/31.927503WBKK -... -.- -.-
LYNNE079/32.427804WPFN .--. ..-. -.

Airport Services

Runway Information

Runway 5/23

Dimensions: 2600 x 100 ft. / 792 x 30 m
Surface: turf
RUNWAY 5  RUNWAY 23
Traffic pattern: leftleft

Airport Ownership and Management from official FAA records

Ownership: Privately-owned
Owner: RONALD STITELER
ROUTE 1 BOX 140
ALTHA, FL 32421
Phone 850-674-8385

Instrument Procedures

There are no published instrument procedures at 74FD.

Some nearby airports with instrument procedures:

KMAI - Marianna Municipal Airport (22 nm N)
KPAM - Tyndall Air Force Base (31 nm SW)
1J0 - Tri-County Airport (32 nm NW)
KECP - Northwest Florida Beaches International Airport (33 nm W)
2J9 - Quincy Municipal Airport (33 nm E)
 
Loc | Ops | Rwys | IFR | FBO | Links
Com | Nav | Svcs | Stats | Notes


 
Area around 74FD (Clarksville Airport)
 
Road maps at: MapQuest Bing Google
 
Aerial photo
No photo
 
Sectional chart

 
Airport distance calculator
Flying to Clarksville Airport? Find the distance to fly.

From to 74FD

Sunrise and sunset
Times for 28-Jul-2017
 Local
(UTC-5)
 Zulu
(UTC)
Morning civil twilight05:3110:31
Sunrise05:5710:57
Sunset19:3700:37
Evening civil twilight20:0301:03

Current date and time
Zulu (UTC)  28-Jul-2017 18:40:06
Local (UTC-5)  28-Jul-2017 13:40:06
 
METAR
KMAI 
22nm N 
281753Z AUTO 27005KT 10SM FEW039 33/24 A2991 RMK AO2 SLP127 T03330239 10339 20256 58015
KPAM 
31nm SW 
281756Z AUTO 24010KT 10SM FEW150 FEW200 32/24 A2993 RMK AO2 SLP138 T03240244 10327 20260 58014
KECP 
33nm W 
281753Z 21007KT 10SM SCT044 SCT060 34/23 A2991 RMK AO2 SLP138 T03440228 10344 20250 58017
KBGE 
41nm NE 
281815Z AUTO 28005G08KT 10SM SCT038 SCT055 34/27 A2991 RMK AO2
KTLH 
43nm E 
281753Z 28012KT 10SM FEW040 SCT080 SCT100 35/21 A2992 RMK AO2 LTG DSNT SW SLP129 CB DSNT SW AND W T03500206 10350 20244 58014
TAF
KPAM 
31nm SW 
281817Z 2818/2924 24009KT 9999 SCT040 SCT250 QNH2986INS BECMG 2820/2821 24010G15KT 9999 FEW020 SCT250 QNH2982INS BECMG 2909/2910 26012G18KT 8000 -SHRA BKN020 BKN150 QNH2986INS TEMPO 2917/2922 26015G25KT 1600 -TSRA OVC020CB TX33/2821Z TN26/2911Z
KECP 
33nm W 
281721Z 2818/2918 24010KT P6SM TSRA BKN040CB FM282300 23005KT P6SM SCT040 BKN250
NOTAMs
Click for the latest NOTAMs
NOTAMs are issued by the DoD/FAA and will open in a separate window not controlled by AirNav.

 

 
 

Would you like to see your business listed on this page?

 If your business provides an interesting product or service to pilots, flight crews, aircraft, or users of the Clarksville Airport, you should consider listing it here.  To start the listing process, click on the button below
 
Add a business
 

Other Pages about Clarksville Airport

Update a link
 
Copyright © AirNav, LLC. All rights reserved. Privacy Policy  Contact